createdAt,value
2022-08-20T00:00:22.468Z,95224.88
2022-08-20T00:04:05.755Z,95230.19
2022-08-20T00:07:49.679Z,95236.59
2022-08-20T00:11:33.563Z,95231.78
2022-08-20T00:15:21.658Z,95236.31
2022-08-20T00:19:07.850Z,95234.44
2022-08-20T00:22:50.665Z,95249.81
2022-08-20T00:26:33.553Z,95235.97
2022-08-20T00:30:17.050Z,95233.25
2022-08-20T00:33:59.815Z,95255.78
2022-08-20T00:37:44.279Z,95234.25
2022-08-20T00:41:28.741Z,95224.88
2022-08-20T00:45:12.333Z,95237.00
2022-08-20T00:48:57.542Z,95231.63
2022-08-20T00:52:42.072Z,95235.03
2022-08-20T00:56:34.863Z,95226.81
2022-08-20T01:00:20.432Z,95233.84
2022-08-20T01:04:03.231Z,95245.13
2022-08-20T01:07:50.461Z,95239.50
2022-08-20T01:11:37.924Z,95238.72
2022-08-20T01:15:26.875Z,95243.94
2022-08-20T01:19:29.832Z,95244.03
2022-08-20T01:23:30.257Z,95240.56
2022-08-20T01:27:14.673Z,95244.03
2022-08-20T01:30:57.586Z,95242.41
2022-08-20T01:34:43.008Z,95252.25
2022-08-20T01:38:26.198Z,95256.75
2022-08-20T01:42:12.858Z,95236.41
2022-08-20T01:45:56.983Z,95245.00
2022-08-20T01:49:44.610Z,95247.91
2022-08-20T01:53:30.082Z,95246.53
2022-08-20T01:57:14.651Z,95256.59
2022-08-20T02:00:59.217Z,95265.88
2022-08-20T02:04:42.450Z,95257.59
2022-08-20T02:08:25.195Z,95260.19
2022-08-20T02:12:09.977Z,95254.88
2022-08-20T02:15:52.858Z,95271.31
2022-08-20T02:19:40.663Z,95267.53
2022-08-20T02:23:23.526Z,95271.72
2022-08-20T02:27:06.479Z,95264.06
2022-08-20T02:30:55.262Z,95278.41
2022-08-20T02:34:39.915Z,95272.16
2022-08-20T02:38:22.662Z,95268.94
2022-08-20T02:42:06.016Z,95274.38
2022-08-20T02:45:48.815Z,95271.25
2022-08-20T02:49:31.644Z,95273.75
2022-08-20T02:53:16.237Z,95265.31
2022-08-20T02:56:58.984Z,95265.84
2022-08-20T03:00:42.156Z,95277.28
2022-08-20T03:04:24.948Z,95267.41
2022-08-20T03:08:11.305Z,95272.88
2022-08-20T03:11:56.847Z,95273.75
2022-08-20T03:15:41.464Z,95272.22
2022-08-20T03:19:24.224Z,95280.75
2022-08-20T03:23:07.061Z,95280.69
2022-08-20T03:26:52.649Z,95285.06
2022-08-20T03:30:37.336Z,95282.16
2022-08-20T03:34:20.145Z,95284.31
2022-08-20T03:38:03.213Z,95285.69
2022-08-20T03:41:46.052Z,95295.56
2022-08-20T03:45:29.888Z,95291.81
2022-08-20T03:49:14.066Z,95293.09
2022-08-20T03:52:57.673Z,95296.00
2022-08-20T03:56:40.445Z,95300.19
2022-08-20T04:00:28.071Z,95300.81
2022-08-20T04:04:12.059Z,95308.78
2022-08-20T04:07:58.426Z,95301.94
2022-08-20T04:11:46.100Z,95307.41
2022-08-20T04:15:28.871Z,95313.53
2022-08-20T04:19:11.699Z,95302.75
2022-08-20T04:22:59.429Z,95309.03
2022-08-20T04:26:43.353Z,95307.91
2022-08-20T04:30:26.287Z,95313.53
2022-08-20T04:34:09.041Z,95324.66
2022-08-20T04:38:00.360Z,95329.47
2022-08-20T04:41:43.667Z,95325.78
2022-08-20T04:45:26.538Z,95329.31
2022-08-20T04:49:09.958Z,95328.66
2022-08-20T04:52:52.812Z,95333.19
2022-08-20T04:56:40.730Z,95335.75
2022-08-20T05:00:23.543Z,95342.50
2022-08-20T05:04:06.381Z,95338.31
2022-08-20T05:07:49.367Z,95338.56
2022-08-20T05:11:36.109Z,95331.88
2022-08-20T05:15:21.350Z,95339.84
2022-08-20T05:19:04.133Z,95343.97
2022-08-20T05:22:47.014Z,95338.97
2022-08-20T05:26:29.872Z,95342.66
2022-08-20T05:30:13.480Z,95347.25
2022-08-20T05:33:57.917Z,95354.81
2022-08-20T05:37:42.233Z,95361.19
2022-08-20T05:41:28.772Z,95364.72
2022-08-20T05:45:12.616Z,95357.31
2022-08-20T05:48:55.431Z,95365.38
2022-08-20T05:52:43.941Z,95363.25
2022-08-20T05:56:30.585Z,95366.47
2022-08-20T06:00:15.165Z,95370.03
2022-08-20T06:04:16.028Z,95373.41
2022-08-20T06:08:07.921Z,95374.38
2022-08-20T06:11:51.011Z,95370.69
2022-08-20T06:15:34.706Z,95384.03
2022-08-20T06:19:25.042Z,95384.69
2022-08-20T06:23:10.551Z,95388.06
2022-08-20T06:26:56.915Z,95386.03
2022-08-20T06:30:40.260Z,95387.41
2022-08-20T06:34:28.292Z,95390.13
2022-08-20T06:38:15.007Z,95396.44
2022-08-20T06:41:58.587Z,95396.44
2022-08-20T06:45:41.550Z,95398.66
2022-08-20T06:49:24.319Z,95396.13
2022-08-20T06:53:09.438Z,95398.34
2022-08-20T06:56:55.050Z,95396.25
2022-08-20T07:00:39.306Z,95402.19
2022-08-20T07:04:22.502Z,95396.38
2022-08-20T07:08:05.886Z,95400.09
2022-08-20T07:11:49.352Z,95404.38
2022-08-20T07:15:33.623Z,95416.53
2022-08-20T07:19:16.581Z,95409.97
2022-08-20T07:23:02.694Z,95417.53
2022-08-20T07:26:45.935Z,95410.81
2022-08-20T07:30:56.013Z,95413.06
2022-08-20T07:34:43.566Z,95418.03
2022-08-20T07:38:30.637Z,95427.22
2022-08-20T07:42:13.360Z,95435.28
2022-08-20T07:45:58.495Z,95434.28
2022-08-20T07:49:42.980Z,95427.34
2022-08-20T07:53:26.226Z,95438.09
2022-08-20T07:57:10.017Z,95436.88
2022-08-20T08:00:54.985Z,95443.00
2022-08-20T08:04:42.760Z,95445.16
2022-08-20T08:08:28.309Z,95442.00
2022-08-20T08:12:12.318Z,95450.84
2022-08-20T08:15:58.087Z,95442.72
2022-08-20T08:19:44.578Z,95435.41
2022-08-20T08:23:32.026Z,95446.06
2022-08-20T08:27:18.321Z,95447.94
2022-08-20T08:31:01.166Z,95457.19
2022-08-20T08:34:47.638Z,95455.19
2022-08-20T08:38:31.437Z,95460.56
2022-08-20T08:42:22.194Z,95468.00
2022-08-20T08:46:06.788Z,95462.56
2022-08-20T08:49:51.027Z,95465.09
2022-08-20T08:53:38.442Z,95464.03
2022-08-20T08:57:21.533Z,95461.94
2022-08-20T09:01:53.306Z,95467.25
2022-08-20T09:05:21.174Z,95471.09
2022-08-20T09:09:07.295Z,95470.31
2022-08-20T09:12:50.188Z,95467.44
2022-08-20T09:16:52.038Z,95482.94
2022-08-20T09:20:37.591Z,95474.44
2022-08-20T09:24:20.352Z,95479.09
2022-08-20T09:28:03.726Z,95480.81
2022-08-20T09:31:46.607Z,95475.13
2022-08-20T09:35:32.520Z,95483.88
2022-08-20T09:39:16.676Z,95477.22
2022-08-20T09:43:01.342Z,95469.00
2022-08-20T09:46:44.128Z,95464.16
2022-08-20T09:50:27.901Z,95463.22
2022-08-20T09:54:10.656Z,95460.50
2022-08-20T09:57:55.137Z,95469.53
2022-08-20T10:01:37.946Z,95457.19
2022-08-20T10:05:20.822Z,95465.03
2022-08-20T10:09:05.657Z,95456.28
2022-08-20T10:12:52.819Z,95457.22
2022-08-20T10:16:38.930Z,95450.34
2022-08-20T10:20:21.824Z,95466.78
2022-08-20T10:24:04.836Z,95459.25
2022-08-20T10:27:47.628Z,95457.72
2022-08-20T10:31:30.482Z,95456.03
2022-08-20T10:35:15.116Z,95465.03
2022-08-20T10:38:57.951Z,95458.19
2022-08-20T10:42:42.754Z,95453.00
2022-08-20T10:46:28.375Z,95457.38
2022-08-20T10:50:15.609Z,95454.25
2022-08-20T10:53:58.370Z,95455.84
2022-08-20T10:57:43.330Z,95455.34
2022-08-20T11:01:31.574Z,95453.28
2022-08-20T11:05:18.248Z,95455.84
2022-08-20T11:09:01.001Z,95450.91
2022-08-20T11:12:45.550Z,95450.50
2022-08-20T11:16:29.169Z,95451.16
2022-08-20T11:20:13.789Z,95445.84
2022-08-20T11:24:01.068Z,95445.09
2022-08-20T11:27:48.644Z,95443.50
2022-08-20T11:31:31.410Z,95440.88
2022-08-20T11:35:41.221Z,95440.69
2022-08-20T11:39:18.819Z,95437.81
2022-08-20T11:43:17.977Z,95426.94
2022-08-20T11:47:03.408Z,95433.41
2022-08-20T11:50:46.376Z,95430.72
2022-08-20T11:54:32.468Z,95434.44
2022-08-20T11:58:15.614Z,95434.47
2022-08-20T12:02:02.716Z,95436.72
2022-08-20T12:05:47.191Z,95441.56
2022-08-20T12:09:31.342Z,95439.72
2022-08-20T12:13:14.086Z,95440.03
2022-08-20T12:16:56.813Z,95457.69
2022-08-20T12:20:39.701Z,95456.63
2022-08-20T12:24:22.408Z,95450.75
2022-08-20T12:28:08.676Z,95444.59
2022-08-20T12:31:51.541Z,95449.13
2022-08-20T12:35:34.801Z,95442.16
2022-08-20T12:39:18.860Z,95429.53
2022-08-20T12:43:02.364Z,95431.91
2022-08-20T12:46:46.484Z,95433.44
2022-08-20T12:50:31.629Z,95420.63
2022-08-20T12:54:14.781Z,95420.16
2022-08-20T12:58:00.339Z,95421.50
2022-08-20T13:01:43.174Z,95424.19
2022-08-20T13:05:28.804Z,95422.88
2022-08-20T13:09:11.817Z,95428.72
2022-08-20T13:12:55.040Z,95427.13
2022-08-20T13:16:37.920Z,95433.00
2022-08-20T13:20:21.303Z,95437.00
2022-08-20T13:24:05.764Z,95434.06
2022-08-20T13:27:48.876Z,95433.25
2022-08-20T13:31:31.640Z,95419.63
2022-08-20T13:35:15.543Z,95415.38
2022-08-20T13:38:58.341Z,95421.84
2022-08-20T13:42:42.462Z,95408.00
2022-08-20T13:46:25.230Z,95412.31
2022-08-20T13:50:10.263Z,95404.84
2022-08-20T13:53:53.014Z,95402.69
2022-08-20T13:57:39.182Z,95397.09
2022-08-20T14:01:23.352Z,95400.56
2022-08-20T14:05:06.838Z,95408.00
2022-08-20T14:08:49.590Z,95406.00
2022-08-20T14:12:32.396Z,95392.28
2022-08-20T14:16:25.262Z,95407.75
2022-08-20T14:20:16.286Z,95401.84
2022-08-20T14:24:01.929Z,95397.53
2022-08-20T14:27:44.756Z,95396.44
2022-08-20T14:31:27.444Z,95409.91
2022-08-20T14:35:11.857Z,95418.84
2022-08-20T14:38:54.599Z,95406.28
2022-08-20T14:42:37.968Z,95400.44
2022-08-20T14:46:20.697Z,95419.22
2022-08-20T14:50:06.609Z,95409.50
2022-08-20T14:53:50.747Z,95417.06
2022-08-20T14:57:33.919Z,95416.00
2022-08-20T15:01:16.747Z,95428.78
2022-08-20T15:04:59.582Z,95446.59
2022-08-20T15:08:43.595Z,95467.25
2022-08-20T15:12:28.219Z,95466.06
2022-08-20T15:16:11.015Z,95482.50
2022-08-20T15:19:54.754Z,95473.06
2022-08-20T15:23:37.584Z,95481.81
2022-08-20T15:27:24.926Z,95507.34
2022-08-20T15:31:11.761Z,95521.63
2022-08-20T15:34:54.550Z,95515.81
2022-08-20T15:38:37.585Z,95493.03
2022-08-20T15:42:21.884Z,95486.94
2022-08-20T15:46:06.554Z,95488.97
2022-08-20T15:49:52.313Z,95478.34
2022-08-20T15:53:40.909Z,95482.75
2022-08-20T15:57:38.637Z,95477.13
2022-08-20T16:01:28.615Z,95477.28
2022-08-20T16:05:19.274Z,95485.69
2022-08-20T16:09:11.954Z,95476.34
2022-08-20T16:12:58.322Z,95478.44
2022-08-20T16:16:44.305Z,95469.56
2022-08-20T16:20:35.355Z,95469.50
2022-08-20T16:24:19.873Z,95472.94
2022-08-20T16:28:06.861Z,95471.03
2022-08-20T16:31:56.259Z,95472.81
2022-08-20T16:35:48.442Z,95469.59
2022-08-20T16:39:41.735Z,95481.81
2022-08-20T16:43:29.355Z,95482.31
2022-08-20T16:47:17.244Z,95488.13
2022-08-20T16:51:04.883Z,95484.41
2022-08-20T16:54:47.668Z,95482.31
2022-08-20T16:58:30.406Z,95486.41
2022-08-20T17:02:20.145Z,95494.72
2022-08-20T17:06:17.344Z,95492.63
2022-08-20T17:10:12.045Z,95493.09
2022-08-20T17:14:07.993Z,95499.47
2022-08-20T17:17:50.798Z,95509.53
2022-08-20T17:21:38.284Z,95496.25
2022-08-20T17:25:32.282Z,95504.16
2022-08-20T17:29:16.965Z,95502.28
2022-08-20T17:33:01.533Z,95506.00
2022-08-20T17:36:53.160Z,95502.78
2022-08-20T17:40:45.764Z,95501.50
2022-08-20T17:44:30.376Z,95502.69
2022-08-20T17:48:17.127Z,95500.66
2022-08-20T17:52:04.230Z,95509.22
2022-08-20T17:55:48.041Z,95507.59
2022-08-20T18:00:01.303Z,95503.34
2022-08-20T18:03:36.435Z,95500.59
2022-08-20T18:07:25.487Z,95507.44
2022-08-20T18:11:20.218Z,95506.88
2022-08-20T18:15:09.536Z,95496.50
2022-08-20T18:18:56.521Z,95501.81
2022-08-20T18:22:49.645Z,95494.41
2022-08-20T18:26:34.734Z,95504.78
2022-08-20T18:30:19.659Z,95511.16
2022-08-20T18:34:12.549Z,95510.09
2022-08-20T18:37:59.372Z,95515.91
2022-08-20T18:41:56.240Z,95517.19
2022-08-20T18:45:39.037Z,95516.97
2022-08-20T18:49:29.739Z,95511.41
2022-08-20T18:53:21.101Z,95515.91
2022-08-20T18:57:05.749Z,95514.63
2022-08-20T19:00:52.118Z,95516.47
2022-08-20T19:04:35.240Z,95512.69
2022-08-20T19:08:22.721Z,95519.63
2022-08-20T19:12:18.024Z,95528.31
2022-08-20T19:16:06.221Z,95536.28
2022-08-20T19:19:59.891Z,95533.88
2022-08-20T19:23:57.579Z,95528.25
2022-08-20T19:27:40.913Z,95530.66
2022-08-20T19:31:26.487Z,95533.06
2022-08-20T19:35:10.574Z,95532.75
2022-08-20T19:38:57.565Z,95526.88
2022-08-20T19:42:43.483Z,95534.03
2022-08-20T19:46:30.778Z,95530.47
2022-08-20T19:50:20.529Z,95521.91
2022-08-20T19:54:07.673Z,95523.84
2022-08-20T19:57:54.824Z,95518.22
2022-08-20T20:01:38.045Z,95516.59
2022-08-20T20:05:20.930Z,95514.50
2022-08-20T20:09:07.437Z,95512.91
2022-08-20T20:12:50.470Z,95510.16
2022-08-20T20:16:33.717Z,95512.25
2022-08-20T20:20:24.964Z,95513.06
2022-08-20T20:24:10.054Z,95503.72
2022-08-20T20:27:54.720Z,95500.50
2022-08-20T20:31:49.407Z,95501.06
2022-08-20T20:35:34.627Z,95497.34
2022-08-20T20:39:29.745Z,95502.09
2022-08-20T20:43:15.115Z,95498.88
2022-08-20T20:46:59.861Z,95499.03
2022-08-20T20:50:42.629Z,95500.03
2022-08-20T20:54:40.546Z,95494.22
2022-08-20T20:58:23.637Z,95499.25
2022-08-20T21:02:06.486Z,95500.56
2022-08-20T21:05:49.493Z,95499.06
2022-08-20T21:09:35.101Z,95489.03
2022-08-20T21:13:17.832Z,95500.38
2022-08-20T21:17:02.876Z,95486.94
2022-08-20T21:20:45.822Z,95490.84
2022-08-20T21:24:28.614Z,95492.94
2022-08-20T21:28:12.830Z,95503.75
2022-08-20T21:31:56.865Z,95498.91
2022-08-20T21:35:39.613Z,95497.94
2022-08-20T21:39:22.497Z,95508.72
2022-08-20T21:43:06.519Z,95501.13
2022-08-20T21:46:51.692Z,95501.28
2022-08-20T21:50:34.626Z,95498.88
2022-08-20T21:54:18.052Z,95495.66
2022-08-20T21:58:00.991Z,95493.47
2022-08-20T22:01:44.030Z,95499.50
2022-08-20T22:05:28.236Z,95504.50
2022-08-20T22:09:11.351Z,95501.03
2022-08-20T22:12:54.126Z,95492.25
2022-08-20T22:16:36.930Z,95494.69
2022-08-20T22:20:20.095Z,95486.16
2022-08-20T22:24:07.097Z,95487.44
2022-08-20T22:27:49.932Z,95493.53
2022-08-20T22:31:35.867Z,95490.66
2022-08-20T22:35:18.854Z,95484.63
2022-08-20T22:39:01.783Z,95484.84
2022-08-20T22:42:45.893Z,95483.72
2022-08-20T22:46:33.538Z,95489.03
2022-08-20T22:50:16.611Z,95481.63
2022-08-20T22:53:59.584Z,95482.75
2022-08-20T22:57:42.490Z,95487.28
2022-08-20T23:01:27.350Z,95473.66
2022-08-20T23:05:13.831Z,95480.50
2022-08-20T23:08:56.637Z,95478.31
2022-08-20T23:12:39.659Z,95477.84
2022-08-20T23:16:22.552Z,95474.78
2022-08-20T23:20:07.774Z,95475.19
2022-08-20T23:23:50.568Z,95474.06
2022-08-20T23:27:35.774Z,95470.28
2022-08-20T23:31:20.488Z,95467.16
2022-08-20T23:35:03.436Z,95471.81
2022-08-20T23:38:47.682Z,95468.25
2022-08-20T23:42:30.480Z,95466.84
2022-08-20T23:46:13.613Z,95463.06
2022-08-20T23:49:56.518Z,95452.91
2022-08-20T23:53:39.752Z,95458.13
2022-08-20T23:57:23.941Z,95449.59
